Time,TemperatureC,DewpointC,PressurehPa,WindDirection,WindDirectionDegrees,WindSpeedKMH,WindSpeedGustKMH,Humidity,HourlyPrecipMM,Conditions,Clouds,dailyrainMM,SolarRadiationWatts/m^2,UVIndex,SoftwareType,DateUTC
2026-05-06 00:03:48,12.2,14.1,993.4,NW,304,7.4,9,85,0.0,,,0.0,0,0,n/a,2026-05-05T22:03:48Z
2026-05-06 00:09:48,12.1,14,993.4,WSW,245,7.8,12.3,84.9,0.0,,,0.0,2,0,n/a,2026-05-05T22:09:48Z
2026-05-06 00:12:49,12.1,14,993.4,SW,225,4.1,4.3,85,0.0,,,0.0,0,0,n/a,2026-05-05T22:12:49Z
2026-05-06 00:18:49,12.1,13.9,993.4,West,270,2.9,3.9,85.3,0.0,,,0.0,0,0,n/a,2026-05-05T22:18:49Z
2026-05-06 00:24:48,12.1,13.9,993.1,SW,225,2.7,3.8,85.4,0.0,,,0.0,2,0,n/a,2026-05-05T22:24:48Z
2026-05-06 00:27:45,12.1,13.9,992.9,West,270,1.9,1.9,85.4,0.0,,,0.0,0,0,n/a,2026-05-05T22:27:45Z
2026-05-06 00:33:48,12.1,13.9,993.1,SW,218,2.2,2.7,85.4,0.0,,,0.0,0,0,n/a,2026-05-05T22:33:48Z
2026-05-06 00:39:48,12,13.9,993.1,West,268,5.3,7.8,85.3,0.0,,,0.0,2,0,n/a,2026-05-05T22:39:48Z
2026-05-06 00:42:48,12,13.8,993.1,WSW,237,2.3,2.6,85.4,0.0,,,0.0,2,0,n/a,2026-05-05T22:42:48Z
2026-05-06 00:48:49,12,13.9,993.1,SW,225,5.2,6.6,86.2,0.0,,,0.0,2,0,n/a,2026-05-05T22:48:49Z
2026-05-06 00:54:49,12.1,13.8,992.9,WSW,253,2.9,4.6,85.6,0.0,,,0.0,2,0,n/a,2026-05-05T22:54:49Z
2026-05-06 00:57:49,12.1,13.9,992.9,SW,225,0.9,1.3,85.7,0.0,,,0.0,0,0,n/a,2026-05-05T22:57:49Z
2026-05-06 01:00:49,12.1,13.8,992.9,SW,225,1.7,2.2,85.3,0.0,,,0.0,0,0,n/a,2026-05-05T23:00:49Z
2026-05-06 01:09:48,11.9,13.8,993.4,SSW,207,6.2,6.6,85.4,0.0,,,0.0,2,0,n/a,2026-05-05T23:09:48Z
2026-05-06 01:12:49,11.9,13.8,993.4,SSW,202,6,6.2,85.7,0.0,,,0.0,2,0,n/a,2026-05-05T23:12:49Z
2026-05-06 01:18:49,12,13.8,993.4,SSW,196,5.6,8.4,85.7,0.0,,,0.0,0,0,n/a,2026-05-05T23:18:49Z
2026-05-06 01:24:48,11.9,13.8,993.4,North,0,6.2,8.6,86.4,0.0,,,0.0,0,0,n/a,2026-05-05T23:24:48Z
2026-05-06 01:27:48,11.9,13.8,993.4,South,180,5.6,5.8,86.8,0.0,,,0.0,2,0,n/a,2026-05-05T23:27:48Z
2026-05-06 01:33:45,11.9,13.8,993.4,SSE,162,3.2,3.8,86.7,0.0,,,0.0,2,0,n/a,2026-05-05T23:33:45Z
2026-05-06 01:39:48,11.9,13.8,993.4,SSW,194,3.2,4.3,86.6,0.0,,,0.0,0,0,n/a,2026-05-05T23:39:48Z
2026-05-06 01:42:49,11.9,13.7,993.4,SSW,212,5.2,5.7,86.4,0.0,,,0.0,0,0,n/a,2026-05-05T23:42:49Z
2026-05-06 01:48:49,11.9,13.8,993.4,SW,232,4.4,5.2,87,0.0,,,0.0,2,0,n/a,2026-05-05T23:48:49Z
2026-05-06 01:54:49,11.9,13.8,993.4,SSW,192,4.4,5.7,87,0.0,,,0.0,2,0,n/a,2026-05-05T23:54:49Z
2026-05-06 01:57:49,11.9,13.8,993.4,SSW,202,3.3,3.9,86.9,0.0,,,0.0,0,0,n/a,2026-05-05T23:57:49Z
2026-05-06 02:03:48,12,13.9,993.4,SSW,213,3.7,3.9,87,0.0,,,0.0,0,0,n/a,2026-05-06T00:03:48Z
2026-05-06 02:09:48,11.9,13.8,993.4,South,180,3,3.2,87.1,0.0,,,0.0,2,0,n/a,2026-05-06T00:09:48Z
2026-05-06 02:12:48,11.9,13.9,993.4,South,180,3.6,3.9,87.2,0.0,,,0.0,2,0,n/a,2026-05-06T00:12:48Z
2026-05-06 02:18:49,12,13.9,993.4,WSW,241,5.2,5.3,87.1,0.0,,,0.0,0,0,n/a,2026-05-06T00:18:49Z
2026-05-06 02:24:45,12,14,993.1,WSW,246,3.8,4.6,87.4,0.0,,,0.0,0,0,n/a,2026-05-06T00:24:45Z
2026-05-06 02:27:48,12.1,14,993.1,SW,225,4.7,5,87.4,0.0,,,0.0,0,0,n/a,2026-05-06T00:27:48Z
2026-05-06 02:33:48,12,13.9,993.1,WSW,241,3.6,5.3,87.3,0.0,,,0.0,2,0,n/a,2026-05-06T00:33:48Z
2026-05-06 02:39:49,12.1,13.9,992.9,SW,217,1.9,3.3,87.5,0.0,,,0.0,2,0,n/a,2026-05-06T00:39:49Z
2026-05-06 02:42:49,12,13.9,992.9,SSW,202,7.8,8,87.6,0.0,,,0.0,0,0,n/a,2026-05-06T00:42:49Z
2026-05-06 02:48:48,12,14,992.9,SSW,198,4.1,5.3,87.9,0.0,,,0.0,2,0,n/a,2026-05-06T00:48:48Z
2026-05-06 02:54:48,12.1,13.9,992.9,SSW,202,4.8,5.9,88.1,0.0,,,0.0,0,0,n/a,2026-05-06T00:54:48Z
2026-05-06 02:57:45,12.1,13.9,992.9,North,0,4.5,4.5,88.1,0.0,,,0.0,0,0,n/a,2026-05-06T00:57:45Z
2026-05-06 03:03:48,12.1,13.9,992.9,SW,225,6.5,8.3,88.1,0.0,,,0.0,2,0,n/a,2026-05-06T01:03:48Z
2026-05-06 03:09:49,12.1,14,992.9,SW,218,6.1,6.6,88.1,0.0,,,0.0,0,0,n/a,2026-05-06T01:09:49Z
2026-05-06 03:12:48,12.1,14,992.9,South,191,4.7,4.9,88,0.0,,,0.0,0,0,n/a,2026-05-06T01:12:48Z
2026-05-06 03:18:48,12,14,992.9,SW,225,7.2,9.8,88.3,0.0,,,0.0,2,0,n/a,2026-05-06T01:18:48Z
2026-05-06 03:24:48,12,14,992.9,West,264,8.9,11.2,88.5,0.0,,,0.0,2,0,n/a,2026-05-06T01:24:48Z
2026-05-06 03:27:49,12.1,13.9,992.6,SSW,202,4.7,5.3,88.2,0.0,,,0.0,2,0,n/a,2026-05-06T01:27:49Z
2026-05-06 03:33:45,12,14,992.9,SSW,212,5.2,8.5,88,0.0,,,0.0,0,0,n/a,2026-05-06T01:33:45Z
2026-05-06 03:39:48,12,13.9,992.9,WNW,289,6.9,11.5,88.3,0.0,,,0.0,0,0,n/a,2026-05-06T01:39:48Z
2026-05-06 03:42:48,12.1,14,992.6,NW,309,5.3,5.9,88.4,0.0,,,0.0,0,0,n/a,2026-05-06T01:42:48Z
2026-05-06 03:48:48,12.1,13.9,992.6,SSW,205,3.7,4.6,88.3,0.0,,,0.0,0,0,n/a,2026-05-06T01:48:48Z
2026-05-06 03:54:48,12,14,992.4,WNW,290,2.8,3.9,88.4,0.0,,,0.0,2,0,n/a,2026-05-06T01:54:48Z
2026-05-06 03:57:48,12.1,13.9,992.4,West,270,0.9,1.1,88.3,0.0,,,0.0,2,0,n/a,2026-05-06T01:57:48Z
2026-05-06 04:03:48,12.1,14,992.4,SW,219,3.8,4.5,88.4,0.0,,,0.0,2,0,n/a,2026-05-06T02:03:48Z
2026-05-06 04:09:48,12.1,13.9,992.4,WNW,293,3.8,4.6,88.4,0.0,,,0.0,0,0,n/a,2026-05-06T02:09:48Z
2026-05-06 04:12:49,12,14,992.4,WNW,286,3.3,3.5,88.5,0.0,,,0.0,2,0,n/a,2026-05-06T02:12:49Z
2026-05-06 04:18:49,12.1,14,992.4,SW,234,4.6,7.8,88.4,0.0,,,0.0,2,0,n/a,2026-05-06T02:18:49Z
2026-05-06 04:24:45,12,13.9,992.4,SW,225,5.9,6.2,88.2,0.0,,,0.0,0,0,n/a,2026-05-06T02:24:45Z
2026-05-06 04:27:49,12,13.9,992.4,WNW,286,5.8,6,88.3,0.0,,,0.5,0,0,n/a,2026-05-06T02:27:49Z
2026-05-06 04:33:49,12,13.9,992.4,WSW,253,4.1,5.2,88.3,0.0,,,0.5,2,0,n/a,2026-05-06T02:33:49Z
2026-05-06 04:39:49,12,13.9,992.4,SSW,209,3.8,5.2,88.3,0.0,,,0.5,2,0,n/a,2026-05-06T02:39:49Z
2026-05-06 04:42:49,12.1,13.9,992.4,West,270,5.6,6.2,88.4,0.0,,,0.5,2,0,n/a,2026-05-06T02:42:49Z
2026-05-06 04:48:48,12,13.9,992.4,SW,232,3.8,5.2,88.5,0.0,,,0.5,2,0,n/a,2026-05-06T02:48:48Z
2026-05-06 04:54:49,12,13.9,992.4,SSW,212,5.7,9.4,88.4,0.0,,,0.5,0,0,n/a,2026-05-06T02:54:49Z
2026-05-06 05:03:48,12,13.9,992.4,SW,225,6.4,7.7,88.7,0.0,,,0.5,2,0,n/a,2026-05-06T03:03:48Z
2026-05-06 05:09:48,11.9,13.9,992.4,WSW,241,5.5,7.9,88.8,0.0,,,0.5,2,0,n/a,2026-05-06T03:09:48Z
2026-05-06 05:12:45,11.9,13.9,992.1,SSW,202,6.4,6.5,88.8,0.0,,,0.5,0,0,n/a,2026-05-06T03:12:45Z
2026-05-06 05:18:48,11.9,13.9,992.4,WSW,237,9.4,11.8,88.7,0.0,,,0.5,0,0,n/a,2026-05-06T03:18:48Z
2026-05-06 05:24:48,12,13.9,992.4,SW,232,3.8,5.3,88.8,0.0,,,0.5,2,0,n/a,2026-05-06T03:24:48Z
2026-05-06 05:27:48,11.9,13.9,992.4,West,270,7.8,8,89.3,0.0,,,0.5,2,0,n/a,2026-05-06T03:27:48Z
2026-05-06 05:33:49,12,13.9,992.1,South,189,4.9,5.9,88.7,0.0,,,0.5,2,0,n/a,2026-05-06T03:33:49Z
2026-05-06 05:39:48,12,13.8,992.4,SSW,203,4.9,7.2,88.6,0.0,,,0.5,2,0,n/a,2026-05-06T03:39:48Z
2026-05-06 05:42:49,12,13.9,992.1,WSW,246,6.7,7.1,88.8,0.0,,,0.5,2,0,n/a,2026-05-06T03:42:49Z
2026-05-06 05:48:45,12,13.8,992.4,SW,217,3.9,4.6,88.6,0.0,,,0.5,2,0,n/a,2026-05-06T03:48:45Z
2026-05-06 05:54:48,12,13.9,992.4,SW,225,8,9.7,88.9,0.0,,,0.5,2,0,n/a,2026-05-06T03:54:48Z
2026-05-06 05:57:48,11.9,13.8,992.4,SW,225,2.7,2.8,88.8,0.0,,,0.5,2,0,n/a,2026-05-06T03:57:48Z
2026-05-06 06:03:49,11.9,13.8,992.4,SW,215,11.9,20.5,88.8,0.0,,,0.5,2,0,n/a,2026-05-06T04:03:49Z
2026-05-06 06:09:48,11.9,13.6,992.4,NNW,333,8,9,88.7,0.0,,,0.5,6,0,n/a,2026-05-06T04:09:48Z
2026-05-06 06:12:49,11.9,13.6,992.4,SW,221,4.5,5.2,88.5,0.0,,,0.5,6,0,n/a,2026-05-06T04:12:49Z
2026-05-06 06:18:49,11.8,13.7,992.4,WSW,252,4.3,5.3,88.6,0.0,,,0.5,10,0,n/a,2026-05-06T04:18:49Z
2026-05-06 06:24:45,11.9,13.7,992.4,West,270,3.6,4.6,88.3,0.0,,,0.5,20,0,n/a,2026-05-06T04:24:45Z
2026-05-06 06:27:48,12,13.7,992.4,West,278,2.9,3.2,88.4,0.0,,,0.5,24,0,n/a,2026-05-06T04:27:48Z
2026-05-06 06:33:48,12,13.7,992.4,WNW,302,2,2.2,88.3,0.0,,,0.5,30,0,n/a,2026-05-06T04:33:48Z
2026-05-06 06:36:48,12,13.7,992.6,SW,225,5.4,6.5,88.3,0.0,,,0.5,22,0,n/a,2026-05-06T04:36:48Z
2026-05-06 06:48:49,12,13.8,992.9,WSW,244,4.3,5.9,88,0.0,,,0.5,22,0,n/a,2026-05-06T04:48:49Z
2026-05-06 06:54:48,12,13.7,992.9,NNW,333,3.4,4,87.9,0.0,,,0.5,20,0,n/a,2026-05-06T04:54:48Z
2026-05-06 06:57:48,12.1,13.7,992.9,West,259,2.9,3.3,87.9,0.0,,,0.5,14,0,n/a,2026-05-06T04:57:48Z
2026-05-06 07:03:48,12.1,13.7,992.6,WNW,292,5,5.9,87.9,0.0,,,0.5,22,0,n/a,2026-05-06T05:03:48Z